Nearby METAR Reports

 

KSYN - Stanton, Minnesota, USA
Distance from station: NW 20mi, 33km
Updated: Sun, 16-May-2021 12:15pm CDT
Mostly cloudy
Mostly cloudy
 Wind from SSE
Wind: SSE 8 mph , 13 km/h
Temperature: 66°F , 19°C
Dew Point: 55°F , 13°C
Humidity: 68%
Barometer: 30.10 inHg , 1019.3 hPa
Clouds: Mostly cloudy
Visibility: 10 miles , 16 km
Cloud details: Mostly cloudy 2500 ft
Mostly cloudy 3400 ft
2021/05/16 17:15 KSYN 161715Z AUTO 15007KT 10SM BKN025 BKN034 19/13 A3010 RMK AO2 T01940127
KTOB - Dodge Center, Minnesota, USA
Distance from station: SSW 21mi, 34km
Updated: Sun, 16-May-2021 12:15pm CDT
Overcast
Overcast
 Wind from S
Wind: S 15 mph , 24 km/h
Temperature: 63°F , 17°C
Dew Point: 54°F , 12°C
Humidity: 73%
Barometer: 30.13 inHg , 1020.3 hPa
Clouds: Overcast
Visibility: 10 miles , 16 km
Cloud details: Overcast 1900 ft
2021/05/16 17:15 KTOB 161715Z AUTO 18013KT 10SM OVC019 17/12 A3013 RMK AO2
K9MN - St Mary Hospital, Minnesota, USA
Distance from station: SSE 22mi, 35km
Updated: Sun, 16-May-2021 12:15pm CDT
Overcast
Overcast
 Wind from SE
Wind: SE 9 mph , 15 km/h, Gust: 18 mph , 30 km/h
Temperature: 61°F , 16°C
Dew Point: 52°F , 11°C
Humidity: 72%
Barometer: 30.14 inHg , 1020.7 hPa
Clouds: Overcast
Visibility: 10 miles , 16 km
Cloud details: Overcast 1900 ft
2021/05/16 17:15 K9MN 161715Z AUTO 13008G16KT 10SM OVC019 16/11 A3014 RMK AO1 T01600108
 
KRGK - Red Wing, Minnesota, USA
Distance from station: NNE 22mi, 35km
Updated: Sun, 16-May-2021 12:15pm CDT
Partly cloudy
Partly cloudy
 Wind from ESE
Wind: ESE 13 mph , 20 km/h
Temperature: 63°F , 17°C
Dew Point: 54°F , 12°C
Humidity: 73%
Barometer: 30.12 inHg , 1020 hPa
Clouds: Partly cloudy
Visibility: 10 miles , 16 km
Cloud details: Partly cloudy 2300 ft
2021/05/16 17:15 KRGK 161715Z AUTO 12011KT 10SM SCT023 17/12 A3012 RMK AO2
KRST - Rochester, Minnesota, USA
Distance from station: SSE 29mi, 47km
Updated: Sun, 16-May-2021 11:54am CDT
Overcast
Overcast
 Wind from SSE
Wind: SSE 12 mph , 19 km/h
Temperature: 63°F , 17°C
Dew Point: 52°F , 11°C
Humidity: 68%
Barometer: 30.15 inHg , 1021 hPa
Clouds: Overcast
Visibility: 10 miles , 16 km
Cloud details: Overcast 1800 ft
2021/05/16 16:54 KRST 161654Z 16010KT 10SM OVC018 17/11 A3015 RMK AO2 SLP211 T01670111
KOWA - Owatonna, Minnesota, USA
Distance from station: WSW 31mi, 50km
Updated: Sun, 16-May-2021 12:33pm CDT
Mostly cloudy
Mostly cloudy
 Wind from SSE
Wind: SSE 13 mph , 20 km/h, Gust: 17 mph , 28 km/h
Temperature: 66°F , 19°C
Dew Point: 55°F , 13°C
Humidity: 68%
Barometer: 30.11 inHg , 1019.6 hPa
Clouds: Mostly cloudy
Visibility: 10 miles , 16 km
Cloud details: Mostly cloudy 2400 ft
2021/05/16 17:33 KOWA 161733Z AUTO 15011G15KT 10SM BKN024 19/13 A3011 RMK A
 
KFBL - Faribault Muni, Minnesota, USA
Distance from station: W 32mi, 51km
Updated: Sun, 16-May-2021 12:15pm CDT
Partly cloudy
Partly cloudy
 Wind from ESE
Wind: ESE 9 mph , 15 km/h, Gust: 17 mph , 28 km/h
Temperature: 70°F , 21°C
Dew Point: 55°F , 13°C
Humidity: 60%
Barometer: 30.11 inHg , 1019.6 hPa
Clouds: Partly cloudy
Visibility: 10 miles , 16 km
Cloud details: Partly cloudy 2800 ft
2021/05/16 17:15 KFBL 161715Z AUTO 12008G15KT 10SM SCT028 21/13 A3011 RMK AO2
KSGS - South St Paul, Minnesota, USA
Distance from station: NNW 43mi, 69km
Updated: Sun, 16-May-2021 12:15pm CDT
Clear
Clear
 Wind from SE
Wind: SE 6 mph , 9 km/h
Temperature: 63°F , 17°C
Dew Point: 54°F , 12°C
Humidity: 73%
Barometer: 30.12 inHg , 1020 hPa
Clouds: Clear
Visibility: 10 miles , 16 km
2021/05/16 17:15 KSGS 161715Z AUTO 14005KT 10SM CLR 17/12 A3012 RMK AO2 T01730119
KAUM - Austin Muni, Minnesota, USA
Distance from station: SSW 46mi, 73km
Updated: Sun, 16-May-2021 12:15pm CDT
Overcast
Overcast
 Wind from S
Wind: S 8 mph , 13 km/h
Temperature: 63°F , 17°C
Dew Point: 55°F , 13°C
Humidity: 77%
Barometer: 30.13 inHg , 1020.3 hPa
Clouds: Overcast
Visibility: 10 miles , 16 km
Cloud details: Overcast 1700 ft
2021/05/16 17:15 KAUM 161715Z AUTO 18007KT 10SM OVC017 17/13 A3013 RMK AO2
 
KACQ - Waseca, Minnesota, USA
Distance from station: WSW 46mi, 75km
Updated: Sun, 16-May-2021 12:15pm CDT
Partly cloudy
Partly cloudy
 Wind from SE
Wind: SE 12 mph , 19 km/h, Gust: 16 mph , 26 km/h
Temperature: 68°F , 20°C
Dew Point: 54°F , 12°C
Humidity: 60%
Barometer: 30.12 inHg , 1020 hPa
Clouds: Partly cloudy
Visibility: 10 miles , 16 km
Cloud details: Partly cloudy 2900 ft
Partly cloudy 3300 ft
2021/05/16 17:15 KACQ 161715Z AUTO 14010G14KT 10SM SCT029 SCT033 20/12 A3012 RMK AO2
KSTP - St. Paul, Minnesota, USA
Distance from station: NNW 47mi, 76km
Updated: Sun, 16-May-2021 11:53am CDT
Overcast
Overcast
 Wind from SSE
Wind: SSE 8 mph , 13 km/h
Temperature: 63°F , 17°C
Dew Point: 54°F , 12°C
Humidity: 73%
Barometer: 30.12 inHg , 1020 hPa
Clouds: Overcast
Visibility: 10 miles , 16 km
Cloud details: Overcast 1900 ft
2021/05/16 16:53 KSTP 161653Z 15007KT 10SM OVC019 17/12 A3012 RMK AO2 SLP198 T01720122
KMSP - Minneapolis, Minnesota, USA
Distance from station: NW 49mi, 78km
Updated: Sun, 16-May-2021 11:53am CDT
Overcast
Overcast
 Wind from ESE
Wind: ESE 10 mph , 17 km/h
Temperature: 64°F , 18°C
Dew Point: 54°F , 12°C
Humidity: 68%
Barometer: 30.12 inHg , 1020 hPa
Clouds: Overcast
Visibility: 9 miles , 14 km
Cloud details: Overcast 2100 ft
2021/05/16 16:53 KMSP 161653Z 11009KT 9SM OVC021 18/12 A3012 RMK AO2 SLP197 T01780122